Historyczne dane pomiarowe

Dodano dane terminowe – wersja testowa.

Dane z okresu 1951-2019

Wersja bazy: 1.34 [2019-03-16, lista zmian], aktualizacja planowana na 2019-04-15

Dane meteo z obszaru Polski uzyskane na podstawie danych udostępnionych przez Instytut Meteorologii i Gospodarki Wodnej – Państwowy Instytut Badawczy.

 

Wybierz Datę:    

       

TemperaturaWilgotnośćWiatrCiśnienieOpadyŚniegCzas trwania zjawisk
 Stacja t tx tn tng RH VA  wxwx mslp ppp RRR   cm mm wxwxwxwxwxwxwx
1987-08-14 14.3 17.7 7.5- 76.8- 4.3 2.0---- 0.0------------
1987-08-13 10.4 16.2 3.4- 79.8- 5.7 1.0---- 0.0------------
1987-08-12 11.7 17.9 5.3- 74.5- 3.7 0.3---- 0.0------------
1987-08-11 12.4 17.0 8.9- 78.3- 4.7 0.7---- 0.2------------
1987-08-10 14.0 17.8 10.4- 93.8- 6.7 0.0---- 14.3------------
1987-08-09 13.6 21.0 4.9- 69.0- 2.0 1.7---- 0.0------------
1987-08-08 12.0 17.5 6.3- 90.0- 1.3 0.7---- 0.0------------
1987-08-07 11.0 16.4 5.3- 73.5- 5.3 2.7---- 0.0------------
1987-08-06 9.9 15.0 8.2- 88.5- 6.7 0.7---- 7.8------------
1987-08-05 13.0 16.5 10.8- 82.0- 7.3 0.3---- 6.2------------
1987-08-04 14.5 20.0 9.0- 84.0- 6.3 3.7---- 4.2------------
1987-08-03 13.7 19.0 8.0- 76.8- 4.0 1.7---- 0.0------------
1987-08-02 13.7 17.4 13.0- 80.3- 6.7 1.7---- 1.2------------
1987-08-01 14.7 21.2 11.7- 80.5- 4.3 0.3---- 1.5------------
1987-07-31 17.8 23.5 10.5- 62.5- 6.7 0.7---- 8.6------------
1987-07-30 15.6 21.5 8.4- 66.8- 3.7 3.0---- 0.0------------
1987-07-29 12.6 17.4 10.0- 79.3- 3.7 0.0---- 0.0------------
1987-07-28 12.2 15.2 11.3- 73.5- 8.0 4.0---- 3.2------------
1987-07-27 12.0 17.7 8.4- 72.5- 3.3 2.0---- 0.3------------
1987-07-26 15.1 21.0 11.1- 96.0- 8.0 0.0---- 9.4------------
1987-07-25 18.6 23.5 15.4- 85.3- 4.7 1.0---- 5.1------------
1987-07-24 20.9 26.5 14.1- 71.0- 3.7 3.7---- 43.6------------
1987-07-23 20.2 27.6 14.4- 76.3- 3.7 0.3---- 0.0------------
1987-07-22 19.9 26.9 15.8- 78.3- 1.7 1.0---- 0.0------------
1987-07-21 21.2 29.8 14.4- 68.3- 5.7 0.0---- 0.0------------
1987-07-20 23.2 31.4 15.0- 70.0- 4.0 2.7---- 0.0------------
1987-07-19 23.9 30.0 14.4- 62.5- 1.0 1.7---- 0.0------------
1987-07-18 23.5 29.0 16.9- 63.5- 2.7 3.7---- 0.0------------
1987-07-17 19.2 28.0 11.7- 74.3- 3.7 2.7---- 0.6------------
1987-07-16 17.9 26.8 8.9- 75.8- 1.3 1.7---- 0.0------------
1987-07-15 14.8 22.4 4.8- 71.5- 1.0 2.0---- 0.0------------
1987-07-14 15.8 20.0 13.7- 74.5- 1.0 2.3---- 0.0------------
1987-07-13 18.8 23.2 14.8- 85.3- 6.7 0.0---- 0.0------------
1987-07-12 21.2 25.1 11.3- 64.8- 1.7 3.3---- 4.1------------
1987-07-11 14.4 22.5 5.4- 78.5- 0.3 1.3---- 0.0------------
1987-07-10 14.7 18.1 11.4- 71.8- 2.3 2.7---- 0.0------------
1987-07-09 21.0 26.8 16.2- 58.5- 3.3 2.3---- 4.7------------
1987-07-08 18.0 25.9 6.4- 60.5- 0.0 3.0---- 0.0------------
1987-07-07 15.1 24.5 5.1- 65.5- 0.0 0.7---- 0.0------------
1987-07-06 15.3 20.1 7.9- 64.8- 0.3 1.3---- 0.0------------
1987-07-05 14.0 18.2 10.4- 78.0- 5.7 2.0---- 0.6------------
1987-07-04 18.0 22.5 15.2- 65.5- 4.3 1.7---- 0.0------------
1987-07-03 18.5 22.0 16.2- 77.8- 8.0 1.3---- 0.0------------
1987-07-02 19.8 24.2 14.9- 89.8- 5.3 0.3---- 0.1------------
1987-07-01 22.5 29.3 13.3- 67.3- 0.0 1.7---- 0.0------------
1987-06-30 19.8 27.8 11.3- 77.5- 0.3 0.7---- 0.0------------
1987-06-29 18.2 23.0 12.2- 75.5- 1.3 0.7---- 0.0------------
1987-06-28 18.3 23.6 13.5- 79.3- 4.3 2.0---- 0.0------------
1987-06-27 19.2 24.8 13.2- 65.5- 4.3 0.3---- 0.0------------
1987-06-26 14.3 21.6 4.9- 72.0- 1.3 1.3---- 0.0------------
1987-06-25 13.0 16.9 10.2- 89.5- 7.0 0.0---- 3.5------------
1987-06-24 14.6 18.3 10.4- 86.0- 4.3 0.0---- 4.5------------
1987-06-23 14.2 18.9 11.8- 89.3- 6.7 1.7---- 0.0------------
1987-06-22 14.2 21.4 9.5- 84.3- 5.7 0.7---- 9.5------------
1987-06-21 13.0 22.4 5.8- 82.0- 3.7 0.7---- 2.1------------
1987-06-20 13.0 21.3 3.3- 71.0- 1.0 1.0---- 0.0------------
1987-06-19 10.6 16.4 5.3- 80.3- 4.3 2.0---- 1.4------------
1987-06-18 9.9 17.2 4.3- 81.8- 3.7 2.3---- 15.4------------
1987-06-17 10.1 13.1 8.4- 86.0- 6.7 0.0---- 6.0------------
1987-06-16 17.7 25.5 11.1- 71.8- 6.3 4.0---- 28.6------------
550.0 ms

 

Źródłem pochodzenia danych jest Instytut Meteorologii i Gospodarki Wodnej – Państwowy Instytut Badawczy. Dane Instytutu Meteorologii i Gospodarki Wodnej – Państwowego Instytutu Badawczego zostały przetworzone.

Dane źródłowe można odnaleźć na stronie https://dane.imgw.pl